Long Pond Heliport

CCX2 · Newfoundland and Labrador, Kanada

METAR-Geschichte CCX2 · Long Pond Heliport

Unten siehst du die METARs der letzten paar Tage. Wähle ein Jahr, um ältere METARs ab dem Jahr 2007 zu durchsuchen.

23. Mai 2024

Uhrzeit Code Wetter Temp. Sichtweite Wolkendecke Wind METAR/SPECI
03:30
I
2 °C 15 mi 500 ft 350° 350° 11 - 18 kt METAR CYYT 230600Z 35011G18KT 15SM OVC005 02/02 A2994 RMK ST8 SLP143
02:30
I
3 °C 15 mi 500 ft 360° 360° 10 kt METAR CYYT 230500Z 36010KT 15SM OVC005 03/02 A2993 RMK ST8 SLP140
01:51
L
3 °C 15 mi 400 ft 010° 010° 7 kt METAR CYYT 230421Z 01007KT 15SM OVC004 03/02 A2991 RMK ST8 SLP135
01:30
I
4 °C 15 mi 900 ft 360° 360° 6 kt METAR CYYT 230400Z 36006KT 15SM OVC009 04/02 A2990 RMK ST8 SLP130
00:30
M
3 °C 15 mi 1.200 ft 350° 350° 13 kt METAR CYYT 230300Z 35013KT 15SM FEW005 OVC012 03/02 A2989 RMK SF2SC6 SLP128
00:07
I
3 °C 15 mi 900 ft 360° 360° 10 - 15 kt METAR CYYT 230237Z 36010G15KT 15SM SCT005 OVC009 03/03 A2989 RMK SF3ST5 SLP127

22. Mai 2024

Uhrzeit Code Wetter Temp. Sichtweite Wolkendecke Wind METAR/SPECI
23:30
L
3 °C 15 mi 400 ft 010° 010° 13 kt METAR CYYT 230200Z 01013KT 15SM OVC004 03/03 A2988 RMK ST8 SLP126
23:09
L
3 °C 12 mi 300 ft 010° 010° 15 kt METAR CYYT 230139Z 01015KT 12SM OVC003 03/03 A2988 RMK ST8 SLP125
22:30
L
4 °C 15 mi 400 ft 020° 020° 12 - 19 kt METAR CYYT 230100Z 02012G19KT 15SM OVC004 04/03 A2988 RMK ST8 SLP126
21:30
L
4 °C 15 mi 400 ft 010° 010° 8 - 16 kt METAR CYYT 230000Z 01008G16KT 15SM OVC004 04/03 A2986 RMK ST8 SLP118
20:30
I
5 °C 15 mi 500 ft 030° 030° 10 kt METAR CYYT 222300Z 03010KT 15SM OVC005 05/04 A2983 RMK ST8 SLP109
20:06
I
5 °C 15 mi 500 ft 030° 030° 8 kt METAR CYYT 222236Z 03008KT 15SM BKN005 OVC012 05/04 A2982 RMK SF5SC3 SLP106
19:46
M
5 °C 15 mi 1.100 ft 030° 030° 8 kt METAR CYYT 222216Z 03008KT 15SM SCT005 OVC011 05/05 A2982 RMK SF3SC5 SLP105
19:30
L
5 °C 15 mi 400 ft 030° 030° 7 kt METAR CYYT 222200Z 03007KT 15SM OVC004 05/05 A2982 RMK ST8 SLP106
18:30
L
6 °C 15 mi 300 ft 050° 050° 5 kt METAR CYYT 222100Z 05005KT 15SM OVC003 06/06 A2980 RMK ST8 SLP099
18:00
L
6 °C 12 mi 200 ft 050° 050° 9 kt METAR CYYT 222030Z 05009KT 12SM OVC002 06/06 A2980 RMK ST8 SLP098
17:38
L
7 °C 1½ mi 200 ft 050° 050° 9 kt METAR CYYT 222008Z 05009KT 1 1/2SM R10/2800V4500FT/N BR OVC002 07/06 A2980 RMK ST8 SLP098
17:27
L
8 °C ¾ mi 200 ft 050° 050° 10 kt METAR CYYT 221957Z 05010KT 3/4SM R10/P6000FT/U BR OVC002 08/07 A2980 RMK ST8 SLP097
16:30
M
10 °C 15 mi 1.700 ft 040° 040° 5 kt METAR CYYT 221900Z 04005KT 15SM -SHRA OVC017 10/09 A2980 RMK SC8 CVCYV CLD EMBD SLP095
15:47
V
13 °C 12 mi 5.900 ft 300° 300° 11 kt METAR CYYT 221817Z 30011KT 12SM -SHRA BKN059 OVC100 13/09 A2978 RMK SC5AC3 CVCTV CLD EMBD SLP091
15:30
M
13 °C 15 mi 2.300 ft 260° 260° 7 kt METAR CYYT 221800Z 26007KT 15SM BKN023 OVC084 13/09 A2977 RMK SC5AC3 SLP087
14:30
M
14 °C 15 mi 2.100 ft 280° 280° 7 kt METAR CYYT 221700Z 28007KT 15SM BKN021 BKN170 14/09 A2978 RMK SC5AC2 SLP089
13:30
M
13 °C 15 mi 1.700 ft 330° 330° 6 kt METAR CYYT 221600Z 33006KT 270V350 15SM BKN017 13/09 A2977 RMK SC7 SLP086
12:30
M
13 °C 15 mi 1.500 ft 290° 290° 10 - 15 kt METAR CYYT 221500Z 29010G15KT 15SM BKN015 BKN160 13/09 A2978 RMK SC5AC3 SLP090
11:30
M
11 °C 15 mi 1.500 ft 270° 270° 13 kt METAR CYYT 221400Z 27013KT 15SM BKN015 BKN130 11/08 A2978 RMK SC5AC2 SLP091
10:30
M
10 °C 15 mi 2.000 ft 280° 280° 13 kt METAR CYYT 221300Z 28013KT 15SM SCT012 BKN020 10/08 A2978 RMK SC3SC4 SLP089
09:30
L
9 °C 15 mi 400 ft 270° 270° 12 kt METAR CYYT 221200Z 27012KT 15SM BKN004 OVC110 09/08 A2977 RMK ST5AC3 SLP086
08:53
L
8 °C 10 mi 300 ft 280° 280° 11 kt METAR CYYT 221123Z 28011KT 10SM BKN003 OVC110 08/08 A2978 RMK ST5AC3 SLP091
08:30
L
8 °C 1½ mi 300 ft 280° 280° 11 kt METAR CYYT 221100Z 28011KT 1 1/2SM BR OVC003 08/08 A2979 RMK ST8 VIS HEIR S E SLP093
08:01
L
7 °C 1½ mi 200 ft 260° 260° 11 kt METAR CYYT 221031Z 26011KT 1 1/2SM BR OVC002 07/07 A2978 RMK ST8 VIS HEIR S SLP090
07:42
L
7 °C 1½ mi 300 ft 270° 270° 11 kt METAR CYYT 221012Z 27011KT 1 1/2SM -DZ BR OVC003 07/07 A2978 RMK ST8 VIS HIER S SLP090
07:30
L
7 °C ¾ mi 200 ft 270° 270° 11 kt METAR CYYT 221000Z 27011KT 3/4SM R28/P6000FT/N -DZ BR OVC002 07/07 A2978 RMK FG4ST4 VIS HIER S SLP090
06:58
L
7 °C ¾ mi 200 ft 270° 270° 12 kt METAR CYYT 220928Z 27012KT 3/4SM R28/P6000FT/D -DZ BR OVC002 07/07 A2978 RMK FG5ST3 VIS HEIR S SLP089
06:30
L
8 °C 1 mi 200 ft 260° 260° 10 kt METAR CYYT 220900Z 26010KT 1SM R28/P6000FT/N BR OVC002 08/07 A2978 RMK SF8 HIER VIS E-S SLP090
05:50
L
8 °C 2 mi 300 ft 270° 270° 11 kt METAR CYYT 220820Z 27011KT 2SM BR BKN003 08/07 A2977 RMK SF7 HIER VIS E-S SLP086
05:30
L
8 °C 15 mi 300 ft 270° 270° 15 kt METAR CYYT 220800Z 27015KT 15SM BKN003 08/07 A2977 RMK SF7 LWR VIS W 2 N 6 SLP084
04:30
V
8 °C 15 mi - 280° 280° 15 kt METAR CYYT 220700Z 28015KT 15SM SCT034 08/07 A2975 RMK SC4 SLP078
03:30
V
8 °C 15 mi - 270° 270° 12 kt METAR CYYT 220600Z 27012KT 15SM SCT036 08/06 A2975 RMK SC3 SLP078
02:30
V
8 °C 15 mi 8.300 ft 280° 280° 18 - 23 kt METAR CYYT 220500Z 28018G23KT 15SM BKN083 08/06 A2976 RMK AC6 SLP082
01:30
V
9 °C 15 mi 10.000 ft 280° 280° 18 - 24 kt METAR CYYT 220400Z 28018G24KT 15SM BKN100 BKN120 09/06 A2977 RMK AC5AC2 SLP087
00:30
V
9 °C 15 mi 12.000 ft 250° 250° 9 - 15 kt METAR CYYT 220300Z 25009G15KT 15SM SCT110 BKN120 09/05 A2979 RMK AC3AC2 SLP091

21. Mai 2024

Uhrzeit Code Wetter Temp. Sichtweite Wolkendecke Wind METAR/SPECI
23:30
V
10 °C 15 mi 11.000 ft 270° 270° 15 kt METAR CYYT 220200Z 27015KT 15SM FEW100 BKN110 10/06 A2980 RMK AC1AC4 SLP097
22:30
V
11 °C 15 mi 11.000 ft 270° 270° 15 kt METAR CYYT 220100Z 27015KT 15SM SCT089 SCT100 BKN110 11/07 A2982 RMK AC4AC1AC2 AC TR SLP101
21:30
V
11 °C 15 mi 9.700 ft 270° 270° 11 kt METAR CYYT 220000Z 27011KT 15SM BKN097 BKN110 BKN120 11/06 A2983 RMK AC5AC1AC1 SLP107
20:30
V
12 °C 15 mi 15.000 ft 280° 280° 13 kt METAR CYYT 212300Z 28013KT 15SM SCT140 BKN150 BKN240 12/06 A2982 RMK AC4AC3CI1 CI TR SLP103
19:30
V
15 °C 15 mi 18.000 ft 270° 270° 12 kt METAR CYYT 212200Z 27012KT 15SM SCT170 BKN180 BKN240 15/08 A2981 RMK AC3AC3CI1 SLP100 DENSITY ALT 700FT
18:30
V
15 °C 15 mi 16.000 ft 200° 200° 10 kt METAR CYYT 212100Z 20010KT 15SM FEW020 BKN160 BKN180 OVC240 15/10 A2981 RMK SC1AC5AC1CI2 SC TR SLP101 DENSITY ALT 800FT
17:30
V
16 °C 15 mi 24.000 ft 160° 160° 7 kt METAR CYYT 212000Z 16007KT 15SM FEW090 FEW180 SCT210 BKN240 16/10 A2982 RMK AC1AC1CI2CI4 AC TR SLP103 DENSITY ALT 800FT
16:30
V
15 °C 15 mi 24.000 ft 140° 140° 10 kt METAR CYYT 211900Z 14010KT 15SM FEW180 SCT210 BKN240 15/09 A2983 RMK AC1CI2CI3 SLP106 DENSITY ALT 700FT
15:30
V
17 °C 15 mi - 130° 130° 9 kt METAR CYYT 211800Z 13009KT 15SM FEW220 SCT240 17/11 A2985 RMK CI1CI3 SLP111 DENSITY ALT 900FT
14:30
V
16 °C 15 mi 24.000 ft 150° 150° 6 kt METAR CYYT 211700Z 15006KT 110V220 15SM FEW030 FEW220 BKN240 16/09 A2986 RMK SC1CI1CI5 SLP118 DENSITY ALT 800FT
13:30
V
17 °C 15 mi 24.000 ft 270° 270° 8 kt METAR CYYT 211600Z 27008KT 240V310 15SM FEW030 OVC240 17/06 A2988 RMK SC1CI7 SLP125 DENSITY ALT 900FT
12:30
V
15 °C 15 mi 24.000 ft 290° 290° 7 kt METAR CYYT 211500Z 29007KT 200V300 15SM FEW030 OVC240 15/08 A2991 RMK SC2CI6 SLP133 DENSITY ALT 700FT
11:30
V
14 °C 15 mi 24.000 ft 260° 260° 5 kt METAR CYYT 211400Z 26005KT 210V280 15SM FEW020 OVC240 14/09 A2991 RMK SC2CI6 SLP136
10:30
M
14 °C 15 mi 1.500 ft 230° 230° 4 kt METAR CYYT 211300Z 23004KT 200V330 15SM BKN015 BKN220 OVC240 14/09 A2993 RMK SC5CI1CI2 SLP142
10:12
M
13 °C 15 mi 1.200 ft 220° 220° 4 kt METAR CYYT 211242Z 22004KT 170V290 15SM BKN012 BKN240 13/09 A2994 RMK SF5CI2 SLP143
09:30
I
10 °C 15 mi 700 ft 260° 260° 3 kt METAR CYYT 211200Z 26003KT 230V360 15SM BKN007 10/09 A2994 RMK SF7 SLP146
08:30
I
10 °C 15 mi 500 ft 230° 230° 4 kt METAR CYYT 211100Z 23004KT 150V260 15SM OVC005 10/09 A2994 RMK SF8 SLP146
07:45
L
8 °C 3 mi 300 ft 190° 190° 6 kt METAR CYYT 211015Z 19006KT 180V240 3SM BR OVC003 08/08 A2994 RMK SF8 SLP146
07:30
L
8 °C 1 mi 300 ft 210° 210° 6 kt METAR CYYT 211000Z 21006KT 1SM R28/5500VP6000FT/D BR OVC003 08/08 A2995 RMK FG6ST2 SLP148
06:53
L
7 °C 1 mi 300 ft 240° 240° 5 kt METAR CYYT 210923Z 24005KT 1SM R28/4500VP6000FT/D BR OVC003 07/07 A2995 RMK FG7ST1 VIS S 6 SLP149
06:43
L
7 °C 1½ mi 300 ft 260° 260° 4 kt METAR CYYT 210913Z 26004KT 1 1/2SM BR OVC003 07/07 A2995 RMK FG3ST5 VIS S 6 SLP149
06:30
L
7 °C 6 mi 400 ft 270° 270° 4 kt METAR CYYT 210900Z 27004KT 6SM BR OVC004 07/07 A2995 RMK FG1SF7 VIS W-N 1 1/2 SLP149
06:13
L
7 °C 2 mi 400 ft 240° 240° 4 kt METAR CYYT 210843Z 24004KT 2SM R10/1200V1600FT/N BR OVC004 07/07 A2995 RMK FG2ST6 VIS N 1 S 6 SLP149
06:02
L
6 °C ¾ mi 300 ft 200° 200° 4 kt METAR CYYT 210832Z 20004KT 3/4SM R10/1600V1800FT/N BR OVC003 06/06 A2995 RMK FG6ST2 VIS S 6 SLP148
05:51
L
6 °C ⅜ mi 400 ft 230° 230° 3 kt METAR CYYT 210821Z 23003KT 3/8SM R28/2200V3000FT/N FG VV004 06/06 A2995 RMK FG8 SLP150
05:40
L
6 °C ¾ mi 200 ft 250° 250° 3 kt METAR CYYT 210810Z 25003KT 3/4SM R28/2600V5000FT/D BR OVC002 06/06 A2995 RMK FG6ST2 VIS S 6 SLP149
05:30
L
6 °C 6 mi 300 ft 250° 250° 3 kt METAR CYYT 210800Z 25003KT 6SM R28/3500VP6000FT/D BR OVC003 06/06 A2995 RMK FG1ST7 VIS W-N 1 SLP148
05:23
L
6 °C 6 mi 300 ft 240° 240° 5 kt METAR CYYT 210753Z 24005KT 6SM R28/2800V5500FT/N BR OVC003 06/06 A2994 RMK FG1ST7 VIS W-N 1 SLP146
05:02
L
6 °C ¾ mi 200 ft 250° 250° 6 kt METAR CYYT 210732Z 25006KT 3/4SM R28/2600V5500FT/D BR OVC002 06/06 A2995 RMK FG7ST1 VIS S 6 SLP148
04:30
L
6 °C 1 mi 200 ft 260° 260° 7 kt METAR CYYT 210700Z 26007KT 1SM R28/3000VP6000FT/U BR BKN002 OVC007 06/06 A2996 RMK FG6SF1ST1 SLP150
04:13
L
6 °C ¾ mi 300 ft 260° 260° 7 kt METAR CYYT 210643Z 26007KT 3/4SM R28/3500VP6000FT/D BR VV003 06/06 A2996 RMK FG8 SLP150
03:56
L
7 °C 2 mi 200 ft 230° 230° 3 kt METAR CYYT 210626Z 23003KT 2SM R10/3000VP6000FT/D BR OVC002 07/07 A2995 RMK FG2ST6 SLP149
03:30
L
7 °C 6 mi 200 ft 260° 260° 5 kt METAR CYYT 210600Z 26005KT 6SM BR BKN002 OVC007 07/07 A2996 RMK SF5ST3 VIS W-N 2 SLP152
Eine Änderung melden